Latest Coastal Weather Observations for Noarlunga

IDS60701

Issued at 2:31 pm CST Thursday 29 September 2016 (issued every 10 minutes, with the page automatically refreshed every 10 minutes)

About coastal observations | Map of coastal stations | Coastal observations for SA | Marine services | Other Formats
Station Details ID: 023885 Name: NOARLUNGA Lat: -35.16 Lon: 138.51 Height: 55.0 m
Data from the previous 72 hours. | See also: Recent months at Noarlunga
Date/Time
CST
Temp
°C
Wind Pressure Rain since
9am
mm
Weather Cloud Vis
km
Sea
Height
m
Swell
Dir  Spd
kts
Gust
kts
hPa Trend Height
m
Period
s
Dir
29/02:30pm 12.8 WNW 9 14 - - 0.0 - - - - - - -
29/02:00pm 12.9 WNW 11 16 - - 0.0 - - - - - - -
29/01:30pm 13.5 WNW 12 19 - - 0.0 - - - - - - -
29/01:00pm 14.3 W 10 19 - - 0.0 - - - - - - -
29/12:30pm 14.4 W 14 22 - - 0.0 - - - - - - -
29/12:00pm 13.6 WSW 11 19 - - 0.0 - - - - - - -
29/11:30am 13.6 WSW 16 24 - - 0.0 - - - - - - -
29/11:14am 13.4 WSW 16 26 - - 0.0 - - - - - - -
29/11:00am 13.2 WSW 18 28 - - 0.0 - - - - - - -
29/10:30am 12.8 WSW 20 33 - - 0.0 - - - - - - -
29/10:00am 11.4 W 21 36 - - 0.0 - - - - - - -
29/09:30am 12.8 WSW 19 32 - - 0.0 - - - - - - -
29/09:01am 11.6 WSW 18 29 - - 0.0 - - - - - - -
29/09:00am 11.6 WSW 18 27 - - - - - - - - - -
29/08:44am 11.3 WSW 19 30 - - - - - - - - - -
29/08:30am 11.6 WSW 18 27 - - - - - - - - - -
29/08:03am 11.3 WSW 18 28 - - - - - - - - - -
29/08:00am 11.2 WSW 19 29 - - - - - - - - - -
29/07:36am 10.8 WNW 20 35 - - - - - - - - - -
29/07:31am 10.7 NW 20 35 - - - - - - - - - -
29/07:30am 10.7 NW 19 27 - - - - - - - - - -
29/07:09am 10.6 NW 15 26 - - - - - - - - - -
29/07:00am 10.3 NNW 14 20 - - - - - - - - - -
29/06:43am 9.9 NNW 17 27 - - - - - - - - - -
29/06:30am 8.3 N 21 40 - - - - - - - - - -
29/06:00am 9.0 N 22 36 - - - Rain - - - - - -
29/05:30am 7.8 N 20 34 - - - - - - - - - -
29/05:00am 7.8 N 21 33 - - - - - - - - - -
29/04:30am 9.1 N 26 37 - - - - - - - - - -
29/04:00am 8.8 N 24 37 - - - - - - - - - -
29/03:30am 8.6 N 23 35 - - - - - - - - - -
29/03:00am 8.7 NNW 22 35 - - 1.0 Rain - - - - - -
29/02:30am 9.6 NNW 21 32 - - - - - - - - - -
29/02:00am 10.0 NNW 22 35 - - - - - - - - - -
29/01:30am 9.3 NNW 21 33 - - - - - - - - - -
29/01:00am 10.4 NNW 20 31 - - - - - - - - - -
29/12:30am 10.7 NNW 19 34 - - - - - - - - - -
29/12:02am 10.7 NNW 19 29 - - - - - - - - - -
29/12:00am 10.7 NNW 20 29 - - - - - - - - - -
 
Date/Time
CST
Temp
°C
Wind Pressure Rain since
9am
mm
Weather Cloud Vis
km
Sea
Height
m
Swell
Dir  Spd
kts
Gust
kts
hPa Trend Height
m
Period
s
Dir
28/11:30pm 11.1 NNW 17 30 - - - - - - - - - -
28/11:00pm 11.3 NNW 19 33 - - - - - - - - - -
28/10:36pm 11.5 NW 15 25 - - - - - - - - - -
28/10:30pm 11.7 NW 17 25 - - - - - - - - - -
28/10:09pm 12.0 NW 15 25 - - - - - - - - - -
28/10:00pm 12.2 NW 14 23 - - - - - - - - - -
28/09:30pm 12.0 NW 18 28 - - - - - - - - - -
28/09:24pm 11.9 NW 15 26 - - - - - - - - - -
28/09:00pm 11.7 WNW 16 25 - - - - - - - - - -
28/08:30pm 11.8 WNW 14 23 - - - - - - - - - -
28/08:00pm 11.9 WNW 16 27 - - - - - - - - - -
28/07:57pm 11.8 WNW 16 27 - - - - - - - - - -
28/07:30pm 11.3 NW 13 20 - - - - - - - - - -
28/07:22pm 11.6 NW 15 25 - - - - - - - - - -
28/07:00pm 12.3 NW 14 24 - - 20.2 - - - - - - -
28/06:30pm 12.4 WNW 12 19 - - 20.2 - - - - - - -
28/06:00pm 12.6 W 17 27 - - 20.2 Recent precip. - - - - - -
28/05:37pm 13.5 NW 15 33 - - 20.2 - - - - - - -
28/05:30pm 14.2 NW 11 17 - - 20.2 - - - - - - -
28/05:00pm 14.5 NW 10 14 - - 20.0 - - - - - - -
28/04:30pm 15.2 NNE 9 20 - - 15.6 - - - - - - -
28/04:00pm 14.6 ESE 3 7 - - 11.0 - - - - - - -
28/03:30pm 16.6 NE 13 21 - - 10.2 - - - - - - -
28/03:00pm 15.5 ENE 12 21 - - 10.2 - - - - - - -
28/02:30pm 14.1 ENE 11 19 - - 10.2 - - - - - - -
28/02:00pm 12.3 E 9 13 - - 10.2 - - - - - - -
28/01:30pm 12.1 ENE 10 15 - - 9.8 - - - - - - -
28/01:00pm 11.9 NE 11 17 - - 8.4 - - - - - - -
28/12:30pm 11.9 NNE 14 22 - - 5.8 - - - - - - -
28/12:00pm 12.8 NNE 20 31 - - 1.6 Rain - - - - - -
28/11:40am 15.7 N 17 29 - - 0.0 - - - - - - -
28/11:30am 18.4 NNE 15 25 - - 0.0 - - - - - - -
28/11:00am 19.4 NNE 11 18 - - 0.0 - - - - - - -
28/10:41am 19.4 NE 15 26 - - 0.0 - - - - - - -
28/10:30am 19.7 NE 12 18 - - 0.0 - - - - - - -
28/10:15am 19.4 NE 15 25 - - 0.0 - - - - - - -
28/10:00am 19.3 NE 14 21 - - 0.0 - - - - - - -
28/09:30am 19.3 NE 15 23 - - 0.0 - - - - - - -
28/09:00am 18.8 NE 11 18 - - 0.0 - - - - - - -
28/08:30am 18.1 NE 8 17 - - 0.0 - - - - - - -
28/08:00am 16.2 ENE 8 11 - - 0.0 - - - - - - -
28/07:30am 15.4 E 7 9 - - 0.0 - - - - - - -
28/07:00am 13.4 E 5 8 - - 0.0 - - - - - - -
28/06:30am 13.4 NE 7 10 - - 0.0 - - - - - - -
28/06:00am 12.3 NE 7 9 - - 0.0 - - - - - - -
28/05:30am 12.1 NE 6 9 - - 0.0 - - - - - - -
28/05:00am 11.9 NNE 6 9 - - 0.0 - - - - - - -
28/04:30am 11.6 NE 6 8 - - 0.0 - - - - - - -
28/04:00am 11.0 NE 5 7 - - 0.0 - - - - - - -
28/03:30am 8.7 ENE 4 5 - - 0.0 - - - - - - -
28/03:00am 9.7 ENE 4 5 - - 0.0 - - - - - - -
28/02:30am 10.7 NE 6 8 - - 0.0 - - - - - - -
28/02:00am 10.0 NE 6 8 - - 0.0 - - - - - - -
28/01:30am 10.0 NE 6 8 - - 0.0 - - - - - - -
28/01:00am 10.0 NE 6 7 - - 0.0 - - - - - - -
28/12:30am 9.8 NE 5 6 - - 0.0 - - - - - - -
28/12:00am 10.5 NE 6 7 - - 0.0 - - - - - - -
 
Date/Time
CST
Temp
°C
Wind Pressure Rain since
9am
mm
Weather Cloud Vis
km
Sea
Height
m
Swell
Dir  Spd
kts
Gust
kts
hPa Trend Height
m
Period
s
Dir
27/11:30pm 10.2 ENE 6 8 - - 0.0 - - - - - - -
27/11:00pm 10.4 ENE 4 6 - - 0.0 - - - - - - -
27/10:30pm 10.4 NE 5 6 - - 0.0 - - - - - - -
27/10:00pm 10.6 NE 4 6 - - 0.0 - - - - - - -
27/09:30pm 10.8 NE 4 5 - - 0.0 - - - - - - -
27/09:00pm 11.0 NE 3 5 - - 0.0 - - - - - - -
27/08:30pm 11.4 NE 4 5 - - 0.0 - - - - - - -
27/08:00pm 11.6 NNE 3 4 - - 0.0 - - - - - - -
27/07:30pm 12.4 NNE 4 5 - - 0.0 - - - - - - -
27/07:00pm 12.6 N 5 7 - - 0.0 - - - - - - -
27/06:30pm 12.9 N 5 9 - - 0.0 - - - - - - -
27/06:00pm 13.6 NNW 7 9 - - 0.0 - - - - - - -
27/05:30pm 14.2 NNW 7 11 - - 0.0 - - - - - - -
27/05:00pm 14.4 NNW 7 13 - - 0.0 - - - - - - -
27/04:30pm 14.7 NW 8 13 - - 0.0 - - - - - - -
27/04:00pm 15.8 NW 8 13 - - 0.0 - - - - - - -
27/03:30pm 15.4 NNW 11 15 - - 0.0 - - - - - - -
27/03:00pm 15.3 NNW 10 15 - - 0.0 - - - - - - -
27/02:30pm 15.5 NNW 10 16 - - 0.0 - - - - - - -
27/02:00pm 15.9 NNW 10 14 - - 0.0 - - - - - - -
27/01:30pm 15.3 NNW 8 12 - - 0.0 - - - - - - -
27/01:00pm 14.5 NNW 9 15 - - 0.0 - - - - - - -
27/12:30pm 14.4 NW 9 13 - - 0.0 - - - - - - -
27/12:00pm 14.6 NNW 9 13 - - 0.0 - - - - - - -
27/11:30am 14.6 NW 10 14 - - 0.0 - - - - - - -
27/11:00am 14.7 WNW 9 15 - - 0.0 - - - - - - -
27/10:30am 14.6 NW 10 17 - - 0.0 - - - - - - -
27/10:00am 14.2 NW 9 16 - - 0.0 - - - - - - -
27/09:30am 13.8 NW 11 16 - - 0.0 - - - - - - -
27/09:00am 13.6 WNW 9 15 - - 0.0 - - - - - - -
27/08:30am 12.7 WNW 9 12 - - 0.0 - - - - - - -
27/08:00am 13.0 WNW 8 13 - - 0.0 - - - - - - -
27/07:30am 12.4 WNW 8 13 - - 0.0 - - - - - - -
27/07:00am 11.7 WNW 6 11 - - 0.0 - - - - - - -
27/06:30am 11.1 WNW 6 11 - - 0.0 - - - - - - -
27/06:00am 11.1 WNW 7 10 - - 0.0 - - - - - - -
27/05:30am 9.4 NW 2 3 - - 0.0 - - - - - - -
27/05:00am 9.4 WSW 2 9 - - 0.0 - - - - - - -
27/04:30am 8.7 CALM 0 0 - - 0.0 - - - - - - -
27/04:00am 9.3 WSW 2 3 - - 0.0 - - - - - - -
27/03:30am 10.1 SW 4 7 - - 0.0 - - - - - - -
27/03:00am 10.3 WSW 5 10 - - 0.0 - - - - - - -
27/02:30am 10.5 WSW 6 9 - - 0.0 - - - - - - -
27/02:00am 10.6 WSW 6 9 - - 0.0 - - - - - - -
27/01:30am 11.1 WSW 8 13 - - 0.0 - - - - - - -
27/01:00am 10.8 WSW 8 15 - - 0.0 - - - - - - -
27/12:30am 11.0 WSW 8 13 - - 0.0 - - - - - - -
27/12:00am 11.1 WSW 8 13 - - 0.0 - - - - - - -
 
Date/Time
CST
Temp
°C
Wind Pressure Rain since
9am
mm
Weather Cloud Vis
km
Sea
Height
m
Swell
Dir  Spd
kts
Gust
kts
hPa Trend Height
m
Period
s
Dir
26/11:30pm 11.1 WSW 7 10 - - 0.0 - - - - - - -
26/11:00pm 11.3 WSW 9 13 - - 0.0 - - - - - - -
26/10:30pm 11.8 WSW 11 18 - - 0.0 - - - - - - -
26/10:00pm 12.0 W 10 16 - - 0.0 - - - - - - -
26/09:30pm 11.9 W 10 14 - - 0.0 - - - - - - -
26/09:00pm 11.7 W 9 16 - - 0.0 - - - - - - -
26/08:30pm 11.8 W 11 16 - - 0.0 - - - - - - -
26/08:00pm 11.9 W 12 20 - - 0.0 - - - - - - -
26/07:30pm 11.9 W 13 21 - - 0.0 - - - - - - -
26/07:00pm 12.0 WNW 13 23 - - 0.0 - - - - - - -
26/06:30pm 12.0 W 13 22 - - 0.0 - - - - - - -
26/06:00pm 12.4 W 11 21 - - 0.0 - - - - - - -
26/05:30pm 13.0 W 13 20 - - 0.0 - - - - - - -
26/05:00pm 13.5 W 14 22 - - 0.0 - - - - - - -
26/04:30pm 14.0 W 13 20 - - 0.0 - - - - - - -
26/04:00pm 14.5 W 12 20 - - 0.0 - - - - - - -
26/03:30pm 14.7 W 14 22 - - 0.0 - - - - - - -
26/03:00pm 14.2 W 12 20 - - 0.0 - - - - - - -

Other Formats:

Comma delimited format used in spreadsheet applications
http://www.bom.gov.au/fwo/IDS60701/IDS60701.94808.axf

JavaScript Object Notation format (JSON) in row-major order
http://www.bom.gov.au/fwo/IDS60701/IDS60701.94808.json